createdAt,value
2023-05-05T00:00:40.318Z,101253.78
2023-05-05T00:05:41.577Z,101250.9
2023-05-05T00:10:41.572Z,101244.31
2023-05-05T00:15:41.092Z,101242.90999999999
2023-05-05T00:20:40.248Z,101247.46
2023-05-05T00:25:40.049Z,101248.75
2023-05-05T00:30:42.440Z,101245.37
2023-05-05T00:35:40.248Z,101242.33
2023-05-05T00:40:40.351Z,101244.4
2023-05-05T00:45:43.257Z,101244.55
2023-05-05T00:50:42.307Z,101241.44
2023-05-05T00:55:40.558Z,101242.17
2023-05-05T01:00:40.797Z,101246.01
2023-05-05T01:05:54.800Z,101240.19
2023-05-05T01:10:44.230Z,101240.19
2023-05-05T01:15:47.270Z,101240.28
2023-05-05T01:20:48.433Z,101228.77
2023-05-05T01:25:50.737Z,101224.83
2023-05-05T01:30:59.522Z,101226.37
2023-05-05T01:35:46.162Z,101233.31
2023-05-05T01:40:44.109Z,101233.31
2023-05-05T01:45:42.618Z,101226.5
2023-05-05T01:50:41.060Z,101218.22
2023-05-05T01:55:41.778Z,101217.52
2023-05-05T02:00:41.786Z,101216.99
2023-05-05T02:05:42.784Z,101216.56
2023-05-05T02:10:39.997Z,101212.28
2023-05-05T02:15:41.810Z,101214.06
2023-05-05T02:20:40.725Z,101207.79
2023-05-05T02:25:47.650Z,101201.09
2023-05-05T02:30:41.330Z,101201.09
2023-05-05T02:35:42.078Z,101199.65999999999
2023-05-05T02:40:42.492Z,101198.29999999999
2023-05-05T02:45:40.177Z,101196.61
2023-05-05T02:50:40.483Z,101190.81
2023-05-05T02:55:49.264Z,101188.14
2023-05-05T03:00:46.278Z,101183.42
2023-05-05T03:05:44.923Z,101183.42
2023-05-05T03:10:45.806Z,101184.12
2023-05-05T03:15:44.815Z,101184.12
2023-05-05T03:20:41.634Z,101179.68
2023-05-05T03:25:42.589Z,101181.47
2023-05-05T03:30:40.443Z,101171.83
2023-05-05T03:35:41.031Z,101185.82
2023-05-05T03:40:44.116Z,101182.84
2023-05-05T03:45:39.930Z,101190.59
2023-05-05T03:50:40.524Z,101189.14
2023-05-05T03:55:39.962Z,101190.97
2023-05-05T04:00:39.961Z,101188.31
2023-05-05T04:05:41.593Z,101196.87
2023-05-05T04:10:39.947Z,101209.63
2023-05-05T04:15:43.152Z,101222.25
2023-05-05T04:20:40.457Z,101220.83
2023-05-05T04:25:40.336Z,101231.86
2023-05-05T04:30:40.003Z,101242.1
2023-05-05T04:35:41.754Z,101242.69
2023-05-05T04:40:41.507Z,101252.87
2023-05-05T04:45:39.829Z,101257.06
2023-05-05T04:50:40.925Z,101269.01000000001
2023-05-05T04:55:34.262Z,101265.26
2023-05-05T04:55:41.275Z,101265.26
2023-05-05T05:00:39.887Z,101272.43
2023-05-05T05:05:40.056Z,101271.0
2023-05-05T05:10:39.881Z,101270.28
2023-05-05T05:15:40.949Z,101272.72
2023-05-05T05:20:41.668Z,101271.0
2023-05-05T05:25:39.888Z,101271.57999999999
2023-05-05T05:30:40.041Z,101271.27
2023-05-05T05:35:40.110Z,101276.05
2023-05-05T05:40:39.856Z,101268.7
2023-05-05T05:45:40.120Z,101273.05
2023-05-05T05:50:39.936Z,101271.5
2023-05-05T05:55:42.103Z,101275.03
2023-05-05T05:58:55.686Z,101280.19
2023-05-05T06:00:42.480Z,101280.19
2023-05-05T06:05:39.859Z,101273.39
2023-05-05T06:10:40.646Z,101276.09
2023-05-05T06:15:41.591Z,101272.78
2023-05-05T06:20:39.776Z,101275.37
2023-05-05T06:25:39.889Z,101278.51000000001
2023-05-05T06:30:39.897Z,101286.49
2023-05-05T06:35:40.027Z,101278.44
2023-05-05T06:40:39.857Z,101279.78
2023-05-05T06:50:39.999Z,101285.42
2023-05-05T06:55:43.546Z,101289.86
2023-05-05T07:00:40.303Z,101291.54999999999
2023-05-05T07:05:39.859Z,101290.14
2023-05-05T07:10:39.988Z,101291.64
2023-05-05T07:15:45.123Z,101293.0
2023-05-05T07:20:40.084Z,101295.92
2023-05-05T07:25:39.966Z,101297.03
2023-05-05T07:30:40.608Z,101298.91
2023-05-05T07:35:40.216Z,101289.37
2023-05-05T07:40:39.789Z,101291.48
2023-05-05T07:45:40.319Z,101287.87
2023-05-05T07:50:40.131Z,101292.07
2023-05-05T07:55:41.835Z,101296.42
2023-05-05T08:00:40.170Z,101297.29
2023-05-05T08:05:39.821Z,101291.28
2023-05-05T08:10:41.839Z,101296.11
2023-05-05T08:15:41.499Z,101297.06
2023-05-05T08:20:39.751Z,101298.51999999999
2023-05-05T08:25:39.887Z,101298.36
2023-05-05T08:30:39.977Z,101304.40999999999
2023-05-05T08:35:40.040Z,101308.13
2023-05-05T08:40:40.426Z,101309.11
2023-05-05T08:45:41.031Z,101289.67
2023-05-05T08:50:42.783Z,101296.31000000001
2023-05-05T08:55:48.312Z,101305.53
2023-05-05T09:00:41.647Z,101305.53
2023-05-05T09:05:41.483Z,101298.53
2023-05-05T09:10:40.520Z,101302.33
2023-05-05T09:15:41.206Z,101300.45
2023-05-05T09:20:40.465Z,101308.54000000001
2023-05-05T09:25:41.952Z,101300.06
2023-05-05T09:30:41.826Z,101305.36
2023-05-05T09:35:48.042Z,101300.84000000001
2023-05-05T09:40:46.666Z,101303.31
2023-05-05T09:45:39.758Z,101303.31
2023-05-05T09:50:42.802Z,101307.89
2023-05-05T09:55:42.132Z,101311.56
2023-05-05T10:00:39.927Z,101303.76
2023-05-05T10:05:49.441Z,101314.39
2023-05-05T10:10:46.694Z,101305.62999999999
2023-05-05T10:15:43.182Z,101305.62999999999
2023-05-05T10:20:41.346Z,101306.36
2023-05-05T10:25:45.611Z,101306.36
2023-05-05T10:30:43.251Z,101306.36
2023-05-05T10:35:42.587Z,101312.33
2023-05-05T10:40:44.409Z,101307.73000000001
2023-05-05T10:45:40.175Z,101299.87999999999
2023-05-05T10:50:48.116Z,101309.93999999999
2023-05-05T10:55:49.311Z,101306.91
2023-05-05T11:00:50.853Z,101302.87
2023-05-05T11:05:59.612Z,101307.72
2023-05-05T11:10:43.494Z,101307.72
2023-05-05T11:15:40.536Z,101308.78
2023-05-05T11:20:59.534Z,101304.33
2023-05-05T11:25:47.074Z,101303.42000000001
2023-05-05T11:30:59.961Z,101305.66
2023-05-05T11:35:53.008Z,101315.95
2023-05-05T11:40:43.646Z,101315.95
2023-05-05T11:45:39.656Z,101308.17
2023-05-05T11:50:40.060Z,101303.36
2023-05-05T11:55:39.707Z,101301.95
2023-05-05T12:00:39.698Z,101313.08
2023-05-05T12:05:40.148Z,101316.28
2023-05-05T12:10:40.002Z,101315.78
2023-05-05T12:15:39.671Z,101309.32
2023-05-05T12:20:40.777Z,101309.12
2023-05-05T12:25:39.904Z,101297.15
2023-05-05T12:30:39.715Z,101304.89
2023-05-05T12:35:41.098Z,101296.23
2023-05-05T12:40:48.392Z,101308.65
2023-05-05T12:45:39.800Z,101308.65
2023-05-05T12:50:39.890Z,101311.99
2023-05-05T12:55:42.259Z,101309.84
2023-05-05T13:00:39.691Z,101309.14
2023-05-05T13:05:40.256Z,101317.0
2023-05-05T13:10:57.272Z,101311.41
2023-05-05T13:15:39.607Z,101311.41
2023-05-05T13:20:39.946Z,101317.7
2023-05-05T13:25:39.599Z,101317.47
2023-05-05T13:30:40.907Z,101321.11
2023-05-05T13:35:40.281Z,101314.59
2023-05-05T13:40:39.684Z,101310.19
2023-05-05T13:45:41.652Z,101309.2
2023-05-05T13:50:39.939Z,101311.37999999999
2023-05-05T13:55:40.425Z,101293.86
2023-05-05T14:00:39.599Z,101299.53
2023-05-05T14:05:41.670Z,101297.66
2023-05-05T14:10:39.636Z,101301.76
2023-05-05T14:15:39.791Z,101300.72
2023-05-05T14:20:40.296Z,101303.7
2023-05-05T14:25:39.702Z,101309.27
2023-05-05T14:30:39.872Z,101308.81000000001
2023-05-05T14:35:39.806Z,101305.14
2023-05-05T14:40:39.642Z,101301.36
2023-05-05T14:45:40.739Z,101306.31
2023-05-05T14:50:41.454Z,101302.23
2023-05-05T14:55:39.705Z,101301.97
2023-05-05T15:00:39.644Z,101301.47
2023-05-05T15:05:39.910Z,101302.8
2023-05-05T15:10:39.704Z,101312.03
2023-05-05T15:15:40.271Z,101311.87
2023-05-05T15:20:40.059Z,101313.26000000001
2023-05-05T15:25:39.760Z,101311.87
2023-05-05T15:30:39.495Z,101308.7
2023-05-05T15:35:39.725Z,101319.87000000001
2023-05-05T15:40:39.498Z,101320.59000000001
2023-05-05T15:45:40.653Z,101319.64
2023-05-05T15:50:39.942Z,101318.48
2023-05-05T15:55:41.768Z,101325.87
2023-05-05T16:00:40.613Z,101320.36
2023-05-05T16:05:40.760Z,101321.89
2023-05-05T16:10:39.781Z,101322.6
2023-05-05T16:15:39.853Z,101327.20000000001
2023-05-05T16:20:40.328Z,101326.45
2023-05-05T16:25:39.513Z,101327.95
2023-05-05T16:30:41.728Z,101321.94
2023-05-05T16:35:42.561Z,101323.26000000001
2023-05-05T16:40:39.889Z,101329.36
2023-05-05T16:45:39.574Z,101321.42
2023-05-05T16:50:39.850Z,101322.25
2023-05-05T16:55:41.512Z,101313.33
2023-05-05T17:00:39.587Z,101310.74
2023-05-05T17:05:39.797Z,101314.75
2023-05-05T17:10:40.384Z,101318.9
2023-05-05T17:15:40.457Z,101320.29
2023-05-05T17:20:39.714Z,101325.93000000001
2023-05-05T17:25:39.441Z,101335.99
2023-05-05T17:30:39.818Z,101328.2
2023-05-05T17:35:39.706Z,101336.86
2023-05-05T17:40:39.498Z,101339.53
2023-05-05T17:45:41.228Z,101339.43000000001
2023-05-05T17:50:40.705Z,101346.57999999999
2023-05-05T17:55:43.649Z,101352.4
2023-05-05T18:00:39.418Z,101357.69
2023-05-05T18:05:39.861Z,101359.64
2023-05-05T18:10:39.487Z,101359.97
2023-05-05T18:15:39.532Z,101367.19
2023-05-05T18:20:40.036Z,101360.27
2023-05-05T18:25:39.393Z,101369.23000000001
2023-05-05T18:30:39.525Z,101369.44
2023-05-05T18:35:39.637Z,101375.3
2023-05-05T18:40:39.452Z,101385.16
2023-05-05T18:45:39.467Z,101388.51
2023-05-05T18:50:40.225Z,101392.13
2023-05-05T18:55:39.421Z,101392.74
2023-05-05T19:00:39.480Z,101383.11
2023-05-05T19:05:39.848Z,101389.37
2023-05-05T19:10:39.607Z,101397.38
2023-05-05T19:15:39.467Z,101399.84
2023-05-05T19:20:41.885Z,101399.65
2023-05-05T19:25:39.425Z,101400.08
2023-05-05T19:30:39.712Z,101398.58
2023-05-05T19:35:39.826Z,101397.40000000001
2023-05-05T19:40:39.473Z,101394.89
2023-05-05T19:45:39.631Z,101395.29
2023-05-05T19:50:39.610Z,101400.49
2023-05-05T19:55:39.393Z,101396.65
2023-05-05T20:00:39.361Z,101398.38
2023-05-05T20:05:40.347Z,101394.59000000001
2023-05-05T20:10:39.375Z,101388.69
2023-05-05T20:15:39.584Z,101396.84
2023-05-05T20:20:39.788Z,101389.09
2023-05-05T20:25:39.440Z,101390.05
2023-05-05T20:30:39.612Z,101386.6
2023-05-05T20:35:39.610Z,101388.78
2023-05-05T20:40:39.868Z,101391.02
2023-05-05T20:45:39.296Z,101389.36
2023-05-05T20:50:40.775Z,101385.79999999999
2023-05-05T20:55:39.750Z,101390.23
2023-05-05T21:00:39.784Z,101400.16
2023-05-05T21:05:40.337Z,101400.27
2023-05-05T21:10:39.634Z,101399.43
2023-05-05T21:15:39.443Z,101403.37
2023-05-05T21:20:40.173Z,101397.78
2023-05-05T21:25:39.412Z,101393.24
2023-05-05T21:30:39.440Z,101399.14
2023-05-05T21:35:39.645Z,101401.04
2023-05-05T21:40:39.314Z,101402.42
2023-05-05T21:45:39.558Z,101398.08
2023-05-05T21:50:39.498Z,101401.68
2023-05-05T21:55:39.302Z,101403.0
2023-05-05T22:00:41.268Z,101402.75
2023-05-05T22:05:39.696Z,101399.44
2023-05-05T22:10:39.397Z,101395.51
2023-05-05T22:15:46.539Z,101392.94
2023-05-05T22:20:39.798Z,101393.61
2023-05-05T22:25:39.299Z,101392.47
2023-05-05T22:30:39.625Z,101390.95
2023-05-05T22:35:39.822Z,101391.26
2023-05-05T22:40:39.438Z,101396.03
2023-05-05T22:45:39.799Z,101384.12
2023-05-05T22:50:40.382Z,101381.64
2023-05-05T22:55:39.311Z,101382.26
2023-05-05T23:00:41.267Z,101384.64
2023-05-05T23:05:39.201Z,101386.44
2023-05-05T23:10:39.306Z,101376.87
2023-05-05T23:15:41.361Z,101385.05
2023-05-05T23:20:40.952Z,101382.98
2023-05-05T23:25:39.189Z,101383.89
2023-05-05T23:30:39.617Z,101387.0
2023-05-05T23:35:44.146Z,101377.01
2023-05-05T23:40:39.211Z,101380.24
2023-05-05T23:45:39.672Z,101373.13
2023-05-05T23:50:39.264Z,101369.84
2023-05-05T23:55:39.340Z,101375.48000000001
